createdAt,value
2023-05-06T00:01:57.381Z,101611.97
2023-05-06T00:04:24.443Z,101611.69
2023-05-06T00:06:51.534Z,101613.97
2023-05-06T00:09:18.149Z,101610.28
2023-05-06T00:11:45.850Z,101609.56
2023-05-06T00:14:12.587Z,101595.19
2023-05-06T00:16:39.263Z,101600.31
2023-05-06T00:19:05.904Z,101595.22
2023-05-06T00:21:32.473Z,101590.69
2023-05-06T00:23:59.008Z,101584.44
2023-05-06T00:26:25.575Z,101587.59
2023-05-06T00:28:52.085Z,101590.72
2023-05-06T00:31:18.592Z,101584.63
2023-05-06T00:33:45.190Z,101584.06
2023-05-06T00:36:11.691Z,101579.97
2023-05-06T00:38:38.248Z,101584.38
2023-05-06T00:41:05.133Z,101586.22
2023-05-06T00:43:31.662Z,101580.81
2023-05-06T00:45:58.186Z,101577.97
2023-05-06T00:48:24.867Z,101574.13
2023-05-06T00:50:51.496Z,101571.13
2023-05-06T00:53:21.622Z,101572.84
2023-05-06T00:55:49.497Z,101577.25
2023-05-06T00:58:16.112Z,101573.56
2023-05-06T01:00:42.702Z,101569.97
2023-05-06T01:03:09.425Z,101558.16
2023-05-06T01:05:47.520Z,101557.31
2023-05-06T01:08:26.486Z,101557.31
2023-05-06T01:11:00.324Z,101560.88
2023-05-06T01:13:36.189Z,101555.59
2023-05-06T01:16:04.941Z,101562.16
2023-05-06T01:18:32.728Z,101555.31
2023-05-06T01:20:59.893Z,101570.97
2023-05-06T01:23:26.542Z,101569.84
2023-05-06T01:25:53.219Z,101567.88
2023-05-06T01:28:19.913Z,101574.84
2023-05-06T01:30:54.421Z,101580.09
2023-05-06T01:33:42.082Z,101580.25
2023-05-06T01:36:21.548Z,101581.22
2023-05-06T01:38:53.331Z,101573.09
2023-05-06T01:41:20.694Z,101582.38
2023-05-06T01:43:48.288Z,101586.34
2023-05-06T01:46:22.494Z,101583.06
2023-05-06T01:48:54.091Z,101585.34
2023-05-06T01:51:21.934Z,101575.09
2023-05-06T01:53:48.496Z,101585.06
2023-05-06T01:56:16.874Z,101583.91
2023-05-06T01:58:43.430Z,101578.22
2023-05-06T02:01:10.124Z,101577.94
2023-05-06T02:03:37.604Z,101585.06
2023-05-06T02:06:04.910Z,101576.22
2023-05-06T02:08:31.491Z,101574.66
2023-05-06T02:10:58.040Z,101578.22
2023-05-06T02:13:24.578Z,101582.66
2023-05-06T02:15:54.757Z,101575.38
2023-05-06T02:18:21.695Z,101574.78
2023-05-06T02:20:48.211Z,101576.78
2023-05-06T02:23:14.807Z,101571.66
2023-05-06T02:25:41.281Z,101574.81
2023-05-06T02:28:07.866Z,101570.53
2023-05-06T02:30:35.353Z,101566.22
2023-05-06T02:33:02.085Z,101566.53
2023-05-06T02:35:28.816Z,101562.09
2023-05-06T02:37:55.563Z,101569.50
2023-05-06T02:40:22.116Z,101565.94
2023-05-06T02:42:48.632Z,101565.22
2023-05-06T02:45:15.262Z,101564.50
2023-05-06T02:47:41.763Z,101556.41
2023-05-06T02:50:08.637Z,101564.50
2023-05-06T02:52:35.304Z,101561.81
2023-05-06T02:55:02.236Z,101561.97
2023-05-06T02:57:28.956Z,101556.97
2023-05-06T02:59:55.604Z,101557.13
2023-05-06T03:02:22.189Z,101559.09
2023-05-06T03:04:48.699Z,101560.78
2023-05-06T03:07:15.242Z,101560.78
2023-05-06T03:09:41.799Z,101554.81
2023-05-06T03:12:08.386Z,101557.66
2023-05-06T03:14:34.931Z,101560.22
2023-05-06T03:17:01.525Z,101557.50
2023-05-06T03:19:28.112Z,101555.09
2023-05-06T03:21:54.690Z,101555.50
2023-05-06T03:24:21.247Z,101549.22
2023-05-06T03:26:47.811Z,101544.53
2023-05-06T03:29:14.420Z,101539.84
2023-05-06T03:31:41.057Z,101543.44
2023-05-06T03:34:07.815Z,101537.88
2023-05-06T03:36:34.404Z,101541.28
2023-05-06T03:39:00.959Z,101534.78
2023-05-06T03:41:27.504Z,101539.16
2023-05-06T03:43:55.698Z,101534.63
2023-05-06T03:46:22.516Z,101534.63
2023-05-06T03:48:49.083Z,101538.31
2023-05-06T03:51:15.726Z,101536.34
2023-05-06T03:53:42.275Z,101536.59
2023-05-06T03:56:08.845Z,101544.88
2023-05-06T03:58:35.810Z,101538.88
2023-05-06T04:01:02.573Z,101535.88
2023-05-06T04:03:29.246Z,101541.72
2023-05-06T04:05:55.783Z,101537.16
2023-05-06T04:08:22.346Z,101544.53
2023-05-06T04:10:48.879Z,101547.09
2023-05-06T04:13:15.634Z,101543.53
2023-05-06T04:15:42.715Z,101535.59
2023-05-06T04:18:09.320Z,101534.56
2023-05-06T04:20:35.904Z,101532.59
2023-05-06T04:23:02.413Z,101532.34
2023-05-06T04:25:29.026Z,101545.69
2023-05-06T04:27:55.607Z,101541.13
2023-05-06T04:30:22.569Z,101540.88
2023-05-06T04:32:49.196Z,101548.84
2023-05-06T04:35:16.309Z,101552.66
2023-05-06T04:37:43.537Z,101545.56
2023-05-06T04:40:12.243Z,101544.53
2023-05-06T04:42:38.945Z,101554.09
2023-05-06T04:45:05.881Z,101551.38
2023-05-06T04:47:32.630Z,101551.38
2023-05-06T04:49:59.212Z,101559.38
2023-05-06T04:52:26.244Z,101558.94
2023-05-06T04:54:52.781Z,101559.94
2023-05-06T04:57:19.334Z,101561.94
2023-05-06T04:59:46.349Z,101563.91
2023-05-06T05:02:13.086Z,101556.94
2023-05-06T05:04:39.697Z,101564.34
2023-05-06T05:07:07.449Z,101569.88
2023-05-06T05:09:35.267Z,101571.56
2023-05-06T05:12:04.997Z,101570.84
2023-05-06T05:14:31.577Z,101571.00
2023-05-06T05:16:58.123Z,101572.72
2023-05-06T05:19:24.660Z,101577.69
2023-05-06T05:21:51.250Z,101579.69
2023-05-06T05:24:17.775Z,101584.09
2023-05-06T05:26:44.266Z,101587.53
2023-05-06T05:29:11.285Z,101582.13
2023-05-06T05:31:37.842Z,101579.00
2023-05-06T05:34:04.364Z,101573.34
2023-05-06T05:36:31.532Z,101582.00
2023-05-06T05:38:58.170Z,101580.19
2023-05-06T05:41:26.653Z,101583.44
2023-05-06T05:43:53.202Z,101585.88
2023-05-06T05:46:19.840Z,101588.16
2023-05-06T05:48:46.513Z,101589.47
2023-05-06T05:51:13.089Z,101586.47
2023-05-06T05:53:39.738Z,101589.03
2023-05-06T05:56:06.544Z,101591.16
2023-05-06T05:58:34.220Z,101594.88
2023-05-06T06:01:01.712Z,101593.16
2023-05-06T06:03:28.405Z,101595.84
2023-05-06T06:05:55.442Z,101593.00
2023-05-06T06:08:22.196Z,101594.44
2023-05-06T06:10:48.786Z,101595.28
2023-05-06T06:13:15.393Z,101594.56
2023-05-06T06:15:42.033Z,101591.03
2023-05-06T06:18:09.013Z,101590.59
2023-05-06T06:20:36.579Z,101587.59
2023-05-06T06:23:03.114Z,101587.59
2023-05-06T06:25:29.678Z,101601.59
2023-05-06T06:27:56.668Z,101596.88
2023-05-06T06:30:23.267Z,101591.47
2023-05-06T06:32:52.084Z,101607.28
2023-05-06T06:35:19.978Z,101599.03
2023-05-06T06:37:46.904Z,101610.28
2023-05-06T06:40:13.684Z,101597.31
2023-05-06T06:42:40.327Z,101598.63
2023-05-06T06:45:08.635Z,101597.91
2023-05-06T06:47:35.683Z,101603.66
2023-05-06T06:50:02.358Z,101604.50
2023-05-06T06:52:28.912Z,101608.47
2023-05-06T06:54:55.742Z,101600.47
2023-05-06T06:57:22.329Z,101600.22
2023-05-06T06:59:51.853Z,101607.03
2023-05-06T07:02:18.470Z,101606.31
2023-05-06T07:04:45.054Z,101614.72
2023-05-06T07:07:11.633Z,101605.31
2023-05-06T07:09:40.182Z,101603.59
2023-05-06T07:12:07.794Z,101610.97
2023-05-06T07:14:34.626Z,101610.69
2023-05-06T07:17:01.228Z,101599.81
2023-05-06T07:19:28.823Z,101606.63
2023-05-06T07:21:55.548Z,101604.34
2023-05-06T07:24:22.336Z,101612.91
2023-05-06T07:26:48.944Z,101613.84
2023-05-06T07:29:15.572Z,101610.09
2023-05-06T07:31:42.188Z,101622.34
2023-05-06T07:34:08.823Z,101619.88
2023-05-06T07:36:40.592Z,101611.00
2023-05-06T07:39:07.877Z,101615.69
2023-05-06T07:41:34.548Z,101628.19
2023-05-06T07:44:01.485Z,101619.13
2023-05-06T07:46:28.222Z,101622.25
2023-05-06T07:48:54.881Z,101616.81
2023-05-06T07:51:21.801Z,101625.66
2023-05-06T07:53:48.326Z,101623.47
2023-05-06T07:56:14.945Z,101621.75
2023-05-06T07:58:41.446Z,101625.03
2023-05-06T08:01:07.975Z,101626.69
2023-05-06T08:03:35.296Z,101623.84
2023-05-06T08:06:02.146Z,101633.28
2023-05-06T08:08:28.886Z,101630.44
2023-05-06T08:10:56.272Z,101623.84
2023-05-06T08:13:22.916Z,101627.72
2023-05-06T08:15:49.637Z,101637.16
2023-05-06T08:18:22.231Z,101630.63
2023-05-06T08:20:49.650Z,101632.63
2023-05-06T08:23:16.938Z,101633.91
2023-05-06T08:25:43.496Z,101632.06
2023-05-06T08:28:10.036Z,101635.94
2023-05-06T08:30:36.819Z,101630.09
2023-05-06T08:33:03.736Z,101635.78
2023-05-06T08:35:30.691Z,101635.22
2023-05-06T08:37:57.263Z,101628.09
2023-05-06T08:40:26.975Z,101631.78
2023-05-06T08:42:55.427Z,101634.31
2023-05-06T08:45:22.064Z,101627.22
2023-05-06T08:47:48.892Z,101633.47
2023-05-06T08:50:15.945Z,101636.28
2023-05-06T08:52:42.495Z,101641.53
2023-05-06T08:55:09.914Z,101641.47
2023-05-06T08:57:37.205Z,101638.16
2023-05-06T09:00:04.896Z,101645.56
2023-05-06T09:02:31.694Z,101641.53
2023-05-06T09:04:59.842Z,101651.09
2023-05-06T09:07:26.804Z,101650.25
2023-05-06T09:09:53.412Z,101647.81
2023-05-06T09:12:19.933Z,101644.97
2023-05-06T09:14:49.787Z,101655.81
2023-05-06T09:17:28.300Z,101650.06
2023-05-06T09:19:57.164Z,101642.34
2023-05-06T09:22:28.580Z,101643.16
2023-05-06T09:24:58.509Z,101642.00
2023-05-06T09:27:31.799Z,101645.78
2023-05-06T09:30:06.911Z,101646.50
2023-05-06T09:32:35.726Z,101653.19
2023-05-06T09:35:04.875Z,101650.59
2023-05-06T09:37:31.607Z,101651.28
2023-05-06T09:39:59.665Z,101656.41
2023-05-06T09:42:27.916Z,101649.13
2023-05-06T09:45:01.254Z,101645.34
2023-05-06T09:47:34.280Z,101643.44
2023-05-06T09:50:04.490Z,101644.72
2023-05-06T09:52:31.706Z,101639.75
2023-05-06T09:54:58.608Z,101643.25
2023-05-06T09:57:25.882Z,101639.31
2023-05-06T09:59:54.131Z,101629.97
2023-05-06T10:02:22.970Z,101633.63
2023-05-06T10:04:50.771Z,101629.31
2023-05-06T10:07:22.527Z,101624.25
2023-05-06T10:09:49.477Z,101625.38
2023-05-06T10:12:16.589Z,101623.66
2023-05-06T10:14:43.092Z,101634.81
2023-05-06T10:17:10.557Z,101637.13
2023-05-06T10:19:40.753Z,101624.63
2023-05-06T10:22:12.209Z,101629.44
2023-05-06T10:24:47.604Z,101625.94
2023-05-06T10:27:18.574Z,101631.75
2023-05-06T10:29:45.507Z,101623.13
2023-05-06T10:32:12.464Z,101620.28
2023-05-06T10:34:50.667Z,101606.84
2023-05-06T10:37:17.254Z,101602.94
2023-05-06T10:39:44.250Z,101609.28
2023-05-06T10:42:11.321Z,101610.00
2023-05-06T10:44:56.897Z,101612.47
2023-05-06T10:47:23.595Z,101611.63
2023-05-06T10:50:24.709Z,101608.25
2023-05-06T10:52:55.914Z,101616.06
2023-05-06T10:55:35.656Z,101616.75
2023-05-06T10:58:11.353Z,101621.16
2023-05-06T11:00:38.078Z,101615.72
2023-05-06T11:03:12.916Z,101614.72
2023-05-06T11:05:50.108Z,101620.47
2023-05-06T11:08:22.659Z,101605.19
2023-05-06T11:10:49.251Z,101608.75
2023-05-06T11:13:27.542Z,101608.59
2023-05-06T11:15:55.890Z,101602.63
2023-05-06T11:18:29.262Z,101605.84
2023-05-06T11:21:02.617Z,101599.84
2023-05-06T11:23:52.181Z,101599.00
2023-05-06T11:26:18.969Z,101593.19
2023-05-06T11:28:47.383Z,101599.31
2023-05-06T11:31:14.421Z,101594.75
2023-05-06T11:33:48.159Z,101594.91
2023-05-06T11:36:19.058Z,101596.59
2023-05-06T11:38:46.913Z,101601.59
2023-05-06T11:41:14.082Z,101592.56
2023-05-06T11:43:46.268Z,101601.13
2023-05-06T11:46:12.785Z,101598.03
2023-05-06T11:48:39.344Z,101594.13
2023-05-06T11:51:05.943Z,101592.28
2023-05-06T11:53:32.441Z,101589.56
2023-05-06T11:55:59.019Z,101591.09
2023-05-06T11:58:27.120Z,101596.53
2023-05-06T12:00:54.689Z,101591.63
2023-05-06T12:03:22.231Z,101590.28
2023-05-06T12:05:50.060Z,101587.25
2023-05-06T12:08:27.239Z,101587.78
2023-05-06T12:10:56.225Z,101587.59
2023-05-06T12:13:22.999Z,101592.19
2023-05-06T12:15:53.861Z,101587.59
2023-05-06T12:18:20.902Z,101589.31
2023-05-06T12:20:47.463Z,101593.03
2023-05-06T12:23:15.827Z,101578.25
2023-05-06T12:25:44.645Z,101589.44
2023-05-06T12:28:15.579Z,101581.28
2023-05-06T12:30:42.241Z,101586.19
2023-05-06T12:33:09.617Z,101587.19
2023-05-06T12:35:36.152Z,101580.53
2023-05-06T12:38:16.193Z,101582.75
2023-05-06T12:40:44.206Z,101579.66
2023-05-06T12:43:11.354Z,101580.31
2023-05-06T12:45:39.418Z,101570.63
2023-05-06T12:48:07.150Z,101578.09
2023-05-06T12:50:40.771Z,101572.50
2023-05-06T12:53:10.908Z,101572.84
2023-05-06T12:55:38.464Z,101566.22
2023-05-06T12:58:15.398Z,101572.19
2023-05-06T13:00:41.963Z,101572.19
2023-05-06T13:03:08.595Z,101570.31
2023-05-06T13:05:35.273Z,101561.47
2023-05-06T13:08:01.870Z,101557.06
2023-05-06T13:10:28.502Z,101559.63
2023-05-06T13:12:55.098Z,101558.59
2023-05-06T13:15:21.787Z,101558.06
2023-05-06T13:17:49.125Z,101543.13
2023-05-06T13:20:16.419Z,101548.34
2023-05-06T13:22:53.723Z,101543.56
2023-05-06T13:25:21.104Z,101540.50
2023-05-06T13:27:47.707Z,101539.47
2023-05-06T13:30:14.427Z,101537.78
2023-05-06T13:32:41.033Z,101540.50
2023-05-06T13:35:08.030Z,101535.06
2023-05-06T13:37:34.636Z,101525.22
2023-05-06T13:40:01.290Z,101527.06
2023-05-06T13:42:27.887Z,101532.50
2023-05-06T13:44:54.432Z,101527.94
2023-05-06T13:47:21.065Z,101528.25
2023-05-06T13:49:47.586Z,101515.50
2023-05-06T13:52:14.139Z,101518.75
2023-05-06T13:54:40.735Z,101514.78
2023-05-06T13:57:07.249Z,101509.72
2023-05-06T13:59:33.814Z,101517.16
2023-05-06T14:02:01.124Z,101515.25
2023-05-06T14:04:27.862Z,101511.34
2023-05-06T14:06:55.144Z,101512.50
2023-05-06T14:09:21.709Z,101508.41
2023-05-06T14:11:48.255Z,101508.75
2023-05-06T14:14:15.542Z,101507.38
2023-05-06T14:16:42.206Z,101508.38
2023-05-06T14:19:09.009Z,101507.38
2023-05-06T14:21:35.611Z,101495.81
2023-05-06T14:24:02.116Z,101496.81
2023-05-06T14:26:28.693Z,101495.13
2023-05-06T14:28:55.476Z,101492.41
2023-05-06T14:31:22.119Z,101493.41
2023-05-06T14:33:48.684Z,101488.28
2023-05-06T14:36:19.529Z,101484.88
2023-05-06T14:38:46.068Z,101490.31
2023-05-06T14:41:12.588Z,101492.19
2023-05-06T14:43:39.189Z,101488.78
2023-05-06T14:46:05.737Z,101487.94
2023-05-06T14:48:32.324Z,101475.03
2023-05-06T14:50:59.501Z,101483.19
2023-05-06T14:53:25.952Z,101485.91
2023-05-06T14:55:52.509Z,101482.50
2023-05-06T14:58:19.020Z,101484.19
2023-05-06T15:00:45.594Z,101476.88
2023-05-06T15:03:12.189Z,101472.63
2023-05-06T15:05:38.847Z,101478.06
2023-05-06T15:08:05.968Z,101481.63
2023-05-06T15:10:32.498Z,101484.53
2023-05-06T15:12:59.188Z,101489.06
2023-05-06T15:15:25.835Z,101484.69
2023-05-06T15:17:52.672Z,101476.53
2023-05-06T15:20:19.266Z,101473.66
2023-05-06T15:22:45.833Z,101476.53
2023-05-06T15:25:19.343Z,101475.50
2023-05-06T15:27:49.255Z,101473.47
2023-05-06T15:30:15.956Z,101483.19
2023-05-06T15:32:42.567Z,101483.19
2023-05-06T15:35:09.389Z,101486.91
2023-05-06T15:37:36.259Z,101496.06
2023-05-06T15:40:02.819Z,101486.22
2023-05-06T15:42:29.665Z,101491.78
2023-05-06T15:44:56.197Z,101486.22
2023-05-06T15:47:22.714Z,101492.34
2023-05-06T15:49:54.355Z,101485.22
2023-05-06T15:52:21.942Z,101473.66
2023-05-06T15:54:49.993Z,101469.22
2023-05-06T15:57:16.992Z,101480.22
2023-05-06T15:59:43.516Z,101481.75
2023-05-06T16:04:39.709Z,101475.59
2023-05-06T16:07:07.658Z,101465.91
2023-05-06T16:09:34.194Z,101461.63
2023-05-06T16:12:01.276Z,101454.31
2023-05-06T16:14:27.849Z,101447.28
2023-05-06T16:16:54.402Z,101447.72
2023-05-06T16:19:21.008Z,101439.94
2023-05-06T16:21:48.375Z,101442.78
2023-05-06T16:24:15.121Z,101442.50
2023-05-06T16:26:41.631Z,101441.31
2023-05-06T16:29:08.245Z,101443.69
2023-05-06T16:31:35.115Z,101446.94
2023-05-06T16:34:01.654Z,101441.38
2023-05-06T16:36:28.689Z,101437.41
2023-05-06T16:38:55.449Z,101439.59
2023-05-06T16:41:22.020Z,101437.22
2023-05-06T16:43:48.572Z,101437.69
2023-05-06T16:46:15.065Z,101433.19
2023-05-06T16:48:41.683Z,101429.09
2023-05-06T16:51:10.347Z,101436.41
2023-05-06T16:53:36.911Z,101430.13
2023-05-06T16:56:03.615Z,101426.38
2023-05-06T16:58:30.157Z,101423.53
2023-05-06T17:00:56.778Z,101413.50
2023-05-06T17:03:23.396Z,101411.44
2023-05-06T17:05:50.033Z,101417.03
2023-05-06T17:08:16.775Z,101407.03
2023-05-06T17:10:43.634Z,101407.88
2023-05-06T17:13:10.354Z,101404.31
2023-05-06T17:15:37.096Z,101403.63
2023-05-06T17:18:03.870Z,101405.66
2023-05-06T17:20:31.283Z,101408.47
2023-05-06T17:22:57.884Z,101409.66
2023-05-06T17:25:24.417Z,101406.56
2023-05-06T17:27:51.039Z,101405.34
2023-05-06T17:30:17.654Z,101413.78
2023-05-06T17:32:44.328Z,101415.78
2023-05-06T17:35:11.697Z,101418.00
2023-05-06T17:37:39.039Z,101426.28
2023-05-06T17:40:07.094Z,101423.91
2023-05-06T17:42:34.380Z,101427.03
2023-05-06T17:45:01.113Z,101423.81
2023-05-06T17:47:30.260Z,101417.84
2023-05-06T17:49:57.027Z,101419.31
2023-05-06T17:52:26.770Z,101416.78
2023-05-06T17:55:06.296Z,101413.88
2023-05-06T17:57:37.609Z,101409.63
2023-05-06T18:00:04.974Z,101408.94
2023-05-06T18:02:31.609Z,101405.84
2023-05-06T18:04:58.242Z,101414.97
2023-05-06T18:07:24.950Z,101412.41
2023-05-06T18:09:52.189Z,101413.44
2023-05-06T18:12:19.464Z,101427.84
2023-05-06T18:14:46.265Z,101426.84
2023-05-06T18:17:12.824Z,101433.41
2023-05-06T18:19:39.324Z,101435.28
2023-05-06T18:22:05.875Z,101434.28
2023-05-06T18:24:32.401Z,101432.72
2023-05-06T18:26:58.943Z,101440.59
2023-05-06T18:29:27.604Z,101440.22
2023-05-06T18:31:54.118Z,101453.09
2023-05-06T18:34:20.671Z,101447.66
2023-05-06T18:36:47.316Z,101446.81
2023-05-06T18:39:14.205Z,101448.97
2023-05-06T18:41:41.366Z,101449.25
2023-05-06T18:44:07.866Z,101452.16
2023-05-06T18:46:34.399Z,101452.16
2023-05-06T18:49:01.082Z,101458.56
2023-05-06T18:51:27.706Z,101458.88
2023-05-06T18:53:54.374Z,101445.47
2023-05-06T18:56:21.458Z,101449.19
2023-05-06T18:58:47.945Z,101448.31
2023-05-06T19:01:14.488Z,101444.75
2023-05-06T19:03:41.911Z,101454.63
2023-05-06T19:06:09.255Z,101461.72
2023-05-06T19:08:36.601Z,101453.75
2023-05-06T19:11:03.348Z,101455.19
2023-05-06T19:13:29.964Z,101463.47
2023-05-06T19:15:57.143Z,101471.72
2023-05-06T19:18:23.785Z,101462.91
2023-05-06T19:20:50.375Z,101462.97
2023-05-06T19:23:16.900Z,101471.41
2023-05-06T19:25:43.416Z,101480.44
2023-05-06T19:28:09.976Z,101476.31
2023-05-06T19:30:36.666Z,101476.91
2023-05-06T19:33:03.679Z,101479.25
2023-05-06T19:35:30.325Z,101471.69
2023-05-06T19:37:56.960Z,101475.69
2023-05-06T19:40:23.684Z,101473.44
2023-05-06T19:42:51.324Z,101475.38
2023-05-06T19:45:19.056Z,101474.78
2023-05-06T19:47:46.224Z,101477.22
2023-05-06T19:50:13.197Z,101478.91
2023-05-06T19:52:40.204Z,101489.03
2023-05-06T19:55:07.350Z,101486.63
2023-05-06T19:57:34.017Z,101489.63
2023-05-06T20:00:05.195Z,101492.19
2023-05-06T20:02:32.911Z,101490.66
2023-05-06T20:05:00.581Z,101502.09
2023-05-06T20:07:27.338Z,101509.50
2023-05-06T20:09:55.990Z,101504.09
2023-05-06T20:12:30.176Z,101506.34
2023-05-06T20:14:56.772Z,101507.06
2023-05-06T20:17:23.780Z,101504.91
2023-05-06T20:19:50.684Z,101498.19
2023-05-06T20:22:17.333Z,101500.50
2023-05-06T20:24:44.181Z,101498.50
2023-05-06T20:27:10.896Z,101506.75
2023-05-06T20:29:37.520Z,101505.03
2023-05-06T20:32:04.442Z,101502.19
2023-05-06T20:34:31.460Z,101502.19
2023-05-06T20:36:58.197Z,101503.34
2023-05-06T20:39:24.882Z,101513.16
2023-05-06T20:41:51.582Z,101515.84
2023-05-06T20:44:18.162Z,101506.75
2023-05-06T20:46:44.696Z,101502.03
2023-05-06T20:49:11.815Z,101512.56
2023-05-06T20:51:38.391Z,101509.16
2023-05-06T20:54:05.019Z,101513.59
2023-05-06T20:56:31.621Z,101504.75
2023-05-06T20:58:58.132Z,101513.84
2023-05-06T21:01:25.656Z,101516.56
2023-05-06T21:03:52.501Z,101515.84
2023-05-06T21:06:19.469Z,101507.91
2023-05-06T21:08:46.619Z,101510.03
2023-05-06T21:11:13.665Z,101503.34
2023-05-06T21:13:40.824Z,101511.75
2023-05-06T21:16:07.477Z,101502.09
2023-05-06T21:18:34.170Z,101502.22
2023-05-06T21:21:00.980Z,101504.81
2023-05-06T21:23:27.536Z,101501.38
2023-05-06T21:25:54.076Z,101498.69
2023-05-06T21:28:20.617Z,101496.69
2023-05-06T21:30:47.190Z,101493.97
2023-05-06T21:33:13.726Z,101484.84
2023-05-06T21:35:40.371Z,101480.13
2023-05-06T21:38:07.120Z,101481.84
2023-05-06T21:40:33.731Z,101476.16
2023-05-06T21:43:00.318Z,101485.09
2023-05-06T21:45:27.004Z,101492.38
2023-05-06T21:47:53.561Z,101499.66
2023-05-06T21:50:20.347Z,101505.34
2023-05-06T21:52:46.930Z,101504.50
2023-05-06T21:55:13.733Z,101508.22
2023-05-06T21:57:40.565Z,101506.50
2023-05-06T22:00:11.937Z,101510.78
2023-05-06T22:02:39.677Z,101516.44
2023-05-06T22:05:07.769Z,101516.75
2023-05-06T22:07:34.682Z,101523.00
2023-05-06T22:10:01.365Z,101529.38
2023-05-06T22:12:27.912Z,101536.97
2023-05-06T22:14:54.383Z,101528.13
2023-05-06T22:17:22.143Z,101524.56
2023-05-06T22:19:48.729Z,101531.81
2023-05-06T22:22:15.799Z,101533.81
2023-05-06T22:24:42.367Z,101534.09
2023-05-06T22:27:09.049Z,101529.69
2023-05-06T22:29:37.033Z,101525.28
2023-05-06T22:32:03.881Z,101537.09
2023-05-06T22:34:30.710Z,101536.22
2023-05-06T22:36:58.369Z,101540.78
2023-05-06T22:39:27.286Z,101545.50
2023-05-06T22:41:53.904Z,101540.34
2023-05-06T22:44:21.117Z,101552.44
2023-05-06T22:46:47.802Z,101557.84
2023-05-06T22:49:15.974Z,101562.28
2023-05-06T22:51:42.640Z,101558.88
2023-05-06T22:54:09.216Z,101557.16
2023-05-06T22:56:35.792Z,101558.16
2023-05-06T22:59:02.405Z,101564.69
2023-05-06T23:01:32.413Z,101558.72
2023-05-06T23:03:59.617Z,101549.88
2023-05-06T23:06:27.713Z,101549.75
2023-05-06T23:08:54.229Z,101544.34
2023-05-06T23:11:20.812Z,101545.78
2023-05-06T23:13:47.507Z,101553.75
2023-05-06T23:16:14.764Z,101553.59
2023-05-06T23:18:41.723Z,101551.03
2023-05-06T23:21:08.648Z,101544.63
2023-05-06T23:23:35.347Z,101555.56
2023-05-06T23:26:01.901Z,101552.03
2023-05-06T23:28:28.558Z,101554.88
2023-05-06T23:30:55.074Z,101551.31
2023-05-06T23:33:21.688Z,101550.47
2023-05-06T23:35:48.206Z,101548.59
2023-05-06T23:38:14.719Z,101553.03
2023-05-06T23:40:41.198Z,101551.03
2023-05-06T23:43:09.891Z,101549.19
2023-05-06T23:45:36.452Z,101551.75
2023-05-06T23:48:03.352Z,101557.44
2023-05-06T23:50:29.916Z,101562.25
2023-05-06T23:52:56.522Z,101558.72
2023-05-06T23:55:23.140Z,101556.00
2023-05-06T23:57:49.637Z,101559.72
